Caro, Michigan
Current Conditions -  °F | °C
As of 9:35 AM on Thursday 30 Oct 2014 (Local Time) from KCFS Reporting Station
Overcast Overcast  
Wind Chill: 39°   Ceiling: 4100
Heat Index: 39°   Visibility: 10mi
Dew Point: 37°   Wind: 0mph
Humidity: 90%   Direction: NA
Pressure: 30.13"   Gusts: NA
Location:  43.49°N, 83.4°W
Report Text: KCFS 301335Z AUTO 00000KT 10SM OVC041 04/03 A3013 RMK AO2 T00400025
Loading
Personal Weather Stations






























Interactive Weather Map
Tropical Storm Tracking
New forecast layout! Learn more

10-Day Weather Forecast

Advertisements
Track Severe Weather on mobile